TimeCST,TemperatureF,Dew PointF,Humidity,Sea Level PressureIn,VisibilityMPH,Wind Direction,Wind SpeedMPH,Gust SpeedMPH,PrecipitationIn,Events,Conditions,WindDirDegrees,DateUTC
12:04 AM,71.6,69.8,94,29.63,7.0,SSE,15.0,-,N/A,,Overcast,160,2013-02-25 06:04:00
12:39 AM,71.6,69.8,94,29.62,8.0,South,12.7,-,N/A,,Overcast,170,2013-02-25 06:39:00
12:53 AM,71.1,70.0,96,29.61,8.0,South,13.8,-,N/A,,Mostly Cloudy,170,2013-02-25 06:53:00
1:53 AM,71.1,70.0,96,29.59,8.0,South,13.8,-,N/A,,Mostly Cloudy,170,2013-02-25 07:53:00
2:13 AM,71.6,69.8,94,29.58,8.0,South,12.7,-,N/A,,Scattered Clouds,170,2013-02-25 08:13:00
2:53 AM,71.1,69.1,93,29.56,7.0,South,11.5,-,N/A,,Partly Cloudy,170,2013-02-25 08:53:00
3:10 AM,71.6,69.8,94,29.55,7.0,South,12.7,-,N/A,,Mostly Cloudy,170,2013-02-25 09:10:00
3:53 AM,72.0,71.1,97,29.54,7.0,South,13.8,-,N/A,,Overcast,180,2013-02-25 09:53:00
4:53 AM,72.0,71.1,97,29.55,8.0,South,11.5,-,N/A,,Overcast,180,2013-02-25 10:53:00
5:42 AM,73.4,69.8,88,29.56,8.0,SSW,9.2,-,N/A,,Overcast,200,2013-02-25 11:42:00
5:53 AM,73.0,71.1,93,29.56,8.0,SSW,11.5,-,N/A,,Overcast,200,2013-02-25 11:53:00
6:53 AM,73.0,70.0,90,29.57,8.0,South,13.8,-,N/A,,Overcast,180,2013-02-25 12:53:00
7:53 AM,73.0,69.1,87,29.60,7.0,SSW,10.4,-,N/A,,Mostly Cloudy,210,2013-02-25 13:53:00
8:53 AM,73.9,69.1,85,29.62,8.0,SW,11.5,-,N/A,,Overcast,220,2013-02-25 14:53:00
9:27 AM,75.2,68.0,78,29.65,8.0,West,11.5,-,N/A,,Mostly Cloudy,280,2013-02-25 15:27:00
9:53 AM,77.0,66.9,71,29.66,10.0,NW,17.3,21.9,N/A,,Mostly Cloudy,310,2013-02-25 15:53:00
10:53 AM,78.1,61.0,56,29.68,10.0,NNW,19.6,32.2,N/A,,Scattered Clouds,330,2013-02-25 16:53:00
11:53 AM,78.1,51.1,39,29.70,10.0,North,21.9,29.9,N/A,,Clear,350,2013-02-25 17:53:00
12:53 PM,80.1,30.9,17,29.69,10.0,North,19.6,31.1,N/A,,Mostly Cloudy,360,2013-02-25 18:53:00
1:51 PM,80.6,19.4,10,29.68,9.0,NNW,21.9,33.4,N/A,,Overcast,330,2013-02-25 19:51:00
1:53 PM,79.0,19.0,11,29.67,9.0,NW,21.9,33.4,N/A,,Overcast,320,2013-02-25 19:53:00
2:53 PM,79.0,17.1,10,29.69,9.0,NNW,25.3,34.5,N/A,,Overcast,330,2013-02-25 20:53:00
3:53 PM,78.1,14.0,9,29.70,10.0,NNW,21.9,34.5,N/A,,Overcast,330,2013-02-25 21:53:00
4:23 PM,78.8,12.2,8,29.71,10.0,NW,24.2,38.0,N/A,,Overcast,320,2013-02-25 22:23:00
4:53 PM,77.0,1.9,5,29.71,9.0,NW,24.2,40.3,N/A,,Overcast,320,2013-02-25 22:53:00
5:53 PM,73.0,7.0,8,29.73,10.0,NNW,17.3,29.9,N/A,,Partly Cloudy,330,2013-02-25 23:53:00
6:53 PM,69.1,12.0,11,29.78,10.0,North,12.7,-,N/A,,Clear,350,2013-02-26 00:53:00
7:53 PM,64.9,17.1,16,29.82,10.0,North,10.4,-,N/A,,Clear,360,2013-02-26 01:53:00
8:53 PM,60.1,21.9,23,29.86,10.0,ENE,4.6,-,N/A,,Clear,70,2013-02-26 02:53:00
9:53 PM,61.0,19.9,21,29.87,10.0,North,6.9,-,N/A,,Clear,350,2013-02-26 03:53:00
10:53 PM,57.9,21.9,25,29.88,10.0,North,4.6,-,N/A,,Clear,360,2013-02-26 04:53:00
11:53 PM,55.9,23.0,28,29.89,10.0,NNW,5.8,-,N/A,,Clear,340,2013-02-26 05:53:00